sensor_id;sensor_type;location;lat;lon;timestamp;pressure;altitude;pressure_sealevel;temperature;humidity
48424;BME280;34232;42.502;26.014;2023-05-14T00:00:42;100773.97;;;12.75;53.66
48424;BME280;34232;42.502;26.014;2023-05-14T00:03:08;100775.94;;;12.62;53.49
48424;BME280;34232;42.502;26.014;2023-05-14T00:05:33;100779.88;;;12.56;54.19
48424;BME280;34232;42.502;26.014;2023-05-14T00:07:58;100772.06;;;12.55;53.97
48424;BME280;34232;42.502;26.014;2023-05-14T00:10:25;100774.00;;;12.42;54.01
48424;BME280;34232;42.502;26.014;2023-05-14T00:12:50;100773.31;;;12.17;55.02
48424;BME280;34232;42.502;26.014;2023-05-14T00:15:16;100767.88;;;12.19;55.29
48424;BME280;34232;42.502;26.014;2023-05-14T00:17:41;100766.69;;;12.12;55.09
48424;BME280;34232;42.502;26.014;2023-05-14T00:20:06;100756.13;;;12.01;55.47
48424;BME280;34232;42.502;26.014;2023-05-14T00:22:32;100762.44;;;11.87;55.29
48424;BME280;34232;42.502;26.014;2023-05-14T00:24:58;100764.59;;;11.82;55.17
48424;BME280;34232;42.502;26.014;2023-05-14T00:27:23;100761.88;;;12.06;55.69
48424;BME280;34232;42.502;26.014;2023-05-14T00:29:48;100759.00;;;12.20;55.01
48424;BME280;34232;42.502;26.014;2023-05-14T00:32:13;100751.34;;;12.28;53.95
48424;BME280;34232;42.502;26.014;2023-05-14T00:34:39;100748.56;;;12.30;54.17
48424;BME280;34232;42.502;26.014;2023-05-14T00:37:04;100742.22;;;12.32;53.77
48424;BME280;34232;42.502;26.014;2023-05-14T00:39:29;100732.59;;;12.53;54.35
48424;BME280;34232;42.502;26.014;2023-05-14T00:41:55;100733.06;;;12.58;54.11
48424;BME280;34232;42.502;26.014;2023-05-14T00:44:20;100735.91;;;12.67;53.54
48424;BME280;34232;42.502;26.014;2023-05-14T00:46:45;100739.28;;;12.80;53.35
48424;BME280;34232;42.502;26.014;2023-05-14T00:49:11;100727.72;;;12.92;52.79
48424;BME280;34232;42.502;26.014;2023-05-14T00:51:36;100723.47;;;13.01;52.60
48424;BME280;34232;42.502;26.014;2023-05-14T00:54:02;100730.78;;;13.08;52.45
48424;BME280;34232;42.502;26.014;2023-05-14T00:56:27;100729.09;;;13.07;52.32
48424;BME280;34232;42.502;26.014;2023-05-14T00:58:53;100726.69;;;13.15;52.21
48424;BME280;34232;42.502;26.014;2023-05-14T01:01:18;100727.41;;;13.17;52.42
48424;BME280;34232;42.502;26.014;2023-05-14T01:03:43;100729.53;;;13.23;52.11
48424;BME280;34232;42.502;26.014;2023-05-14T01:08:52;100725.22;;;13.22;51.40
48424;BME280;34232;42.502;26.014;2023-05-14T01:11:25;100723.34;;;13.34;50.93
48424;BME280;34232;42.502;26.014;2023-05-14T01:16:29;100727.44;;;13.38;50.55
48424;BME280;34232;42.502;26.014;2023-05-14T01:18:57;100723.22;;;13.36;50.57
48424;BME280;34232;42.502;26.014;2023-05-14T01:23:49;100725.72;;;13.16;50.88
48424;BME280;34232;42.502;26.014;2023-05-14T01:26:14;100717.78;;;13.16;51.42
48424;BME280;34232;42.502;26.014;2023-05-14T01:28:40;100712.41;;;13.07;51.87
48424;BME280;34232;42.502;26.014;2023-05-14T01:31:07;100709.63;;;13.08;51.96
48424;BME280;34232;42.502;26.014;2023-05-14T01:33:33;100708.06;;;13.17;52.33
48424;BME280;34232;42.502;26.014;2023-05-14T01:36:09;100711.50;;;13.28;52.06
48424;BME280;34232;42.502;26.014;2023-05-14T01:38:34;100707.81;;;13.41;52.14
48424;BME280;34232;42.502;26.014;2023-05-14T01:41:00;100708.00;;;13.49;52.02
48424;BME280;34232;42.502;26.014;2023-05-14T01:43:26;100705.81;;;13.54;51.74
48424;BME280;34232;42.502;26.014;2023-05-14T01:45:52;100706.63;;;13.45;51.34
48424;BME280;34232;42.502;26.014;2023-05-14T01:48:19;100703.91;;;13.56;52.44
48424;BME280;34232;42.502;26.014;2023-05-14T01:50:44;100706.88;;;13.62;53.41
48424;BME280;34232;42.502;26.014;2023-05-14T01:53:10;100710.34;;;13.63;52.58
48424;BME280;34232;42.502;26.014;2023-05-14T01:55:35;100712.28;;;13.61;52.40
48424;BME280;34232;42.502;26.014;2023-05-14T01:58:00;100712.28;;;13.61;52.47
48424;BME280;34232;42.502;26.014;2023-05-14T02:00:26;100708.41;;;13.65;52.69
48424;BME280;34232;42.502;26.014;2023-05-14T02:02:51;100714.66;;;13.64;53.63
48424;BME280;34232;42.502;26.014;2023-05-14T02:05:16;100716.63;;;13.62;53.19
48424;BME280;34232;42.502;26.014;2023-05-14T02:07:41;100713.97;;;13.62;52.80
48424;BME280;34232;42.502;26.014;2023-05-14T02:10:07;100718.72;;;13.68;53.19
48424;BME280;34232;42.502;26.014;2023-05-14T02:12:32;100713.69;;;13.65;53.17
48424;BME280;34232;42.502;26.014;2023-05-14T02:14:58;100718.97;;;13.65;53.35
48424;BME280;34232;42.502;26.014;2023-05-14T02:17:24;100729.84;;;13.62;53.08
48424;BME280;34232;42.502;26.014;2023-05-14T02:19:49;100719.94;;;13.64;53.54
48424;BME280;34232;42.502;26.014;2023-05-14T02:22:15;100719.94;;;13.64;53.24
48424;BME280;34232;42.502;26.014;2023-05-14T02:24:40;100709.34;;;13.64;54.03
48424;BME280;34232;42.502;26.014;2023-05-14T02:27:05;100715.66;;;13.63;53.88
48424;BME280;34232;42.502;26.014;2023-05-14T02:29:30;100715.19;;;13.58;53.90
48424;BME280;34232;42.502;26.014;2023-05-14T02:31:56;100710.88;;;13.57;53.91
48424;BME280;34232;42.502;26.014;2023-05-14T02:34:21;100719.44;;;13.49;54.06
48424;BME280;34232;42.502;26.014;2023-05-14T02:36:47;100716.22;;;13.46;54.34
48424;BME280;34232;42.502;26.014;2023-05-14T02:39:12;100719.63;;;13.37;53.27
48424;BME280;34232;42.502;26.014;2023-05-14T02:41:37;100722.97;;;13.39;52.99
48424;BME280;34232;42.502;26.014;2023-05-14T02:44:03;100723.63;;;13.31;52.79
48424;BME280;34232;42.502;26.014;2023-05-14T02:46:29;100725.63;;;13.39;52.71
48424;BME280;34232;42.502;26.014;2023-05-14T02:48:54;100726.72;;;13.36;52.74
48424;BME280;34232;42.502;26.014;2023-05-14T02:51:19;100725.03;;;13.35;53.17
48424;BME280;34232;42.502;26.014;2023-05-14T02:53:45;100721.91;;;13.41;53.17
48424;BME280;34232;42.502;26.014;2023-05-14T02:56:10;100728.88;;;13.42;52.68
48424;BME280;34232;42.502;26.014;2023-05-14T02:58:36;100734.28;;;13.41;53.23
48424;BME280;34232;42.502;26.014;2023-05-14T03:01:01;100724.19;;;13.35;53.10
48424;BME280;34232;42.502;26.014;2023-05-14T03:03:27;100731.88;;;13.38;52.84
48424;BME280;34232;42.502;26.014;2023-05-14T03:05:52;100729.56;;;13.44;53.22
48424;BME280;34232;42.502;26.014;2023-05-14T03:08:18;100737.38;;;13.46;53.14
48424;BME280;34232;42.502;26.014;2023-05-14T03:10:43;100732.09;;;13.46;53.45
48424;BME280;34232;42.502;26.014;2023-05-14T03:13:08;100735.25;;;13.40;53.60
48424;BME280;34232;42.502;26.014;2023-05-14T03:15:34;100735.25;;;13.40;53.18
48424;BME280;34232;42.502;26.014;2023-05-14T03:17:59;100733.31;;;13.42;53.95
48424;BME280;34232;42.502;26.014;2023-05-14T03:20:25;100735.50;;;13.37;53.79
48424;BME280;34232;42.502;26.014;2023-05-14T03:22:50;100726.34;;;13.41;54.51
48424;BME280;34232;42.502;26.014;2023-05-14T03:25:16;100726.28;;;13.31;54.20
48424;BME280;34232;42.502;26.014;2023-05-14T03:27:41;100732.84;;;13.37;55.04
48424;BME280;34232;42.502;26.014;2023-05-14T03:30:06;100724.66;;;13.40;54.47
48424;BME280;34232;42.502;26.014;2023-05-14T03:32:32;100735.72;;;13.45;54.96
48424;BME280;34232;42.502;26.014;2023-05-14T03:34:57;100742.47;;;13.38;54.68
48424;BME280;34232;42.502;26.014;2023-05-14T03:37:23;100736.66;;;13.44;54.40
48424;BME280;34232;42.502;26.014;2023-05-14T03:39:48;100742.41;;;13.49;54.31
48424;BME280;34232;42.502;26.014;2023-05-14T03:42:13;100745.03;;;13.49;54.37
48424;BME280;34232;42.502;26.014;2023-05-14T03:44:38;100746.72;;;13.50;54.58
48424;BME280;34232;42.502;26.014;2023-05-14T03:47:04;100743.94;;;13.51;55.46
48424;BME280;34232;42.502;26.014;2023-05-14T03:49:30;100736.72;;;13.53;56.13
48424;BME280;34232;42.502;26.014;2023-05-14T03:51:55;100735.88;;;13.53;56.28
48424;BME280;34232;42.502;26.014;2023-05-14T03:54:23;100728.41;;;13.58;56.23
48424;BME280;34232;42.502;26.014;2023-05-14T03:56:48;100731.78;;;13.60;56.60
48424;BME280;34232;42.502;26.014;2023-05-14T03:59:13;100735.38;;;13.59;55.75
48424;BME280;34232;42.502;26.014;2023-05-14T04:01:39;100728.72;;;13.64;56.46
48424;BME280;34232;42.502;26.014;2023-05-14T04:04:04;100732.66;;;13.70;56.27
48424;BME280;34232;42.502;26.014;2023-05-14T04:06:29;100744.94;;;13.71;55.36
48424;BME280;34232;42.502;26.014;2023-05-14T04:08:55;100753.31;;;13.76;56.68
48424;BME280;34232;42.502;26.014;2023-05-14T04:11:23;100762.09;;;13.77;56.07
48424;BME280;34232;42.502;26.014;2023-05-14T04:13:48;100768.28;;;13.66;55.30
48424;BME280;34232;42.502;26.014;2023-05-14T04:16:13;100762.94;;;13.77;55.02
48424;BME280;34232;42.502;26.014;2023-05-14T04:18:38;100771.13;;;13.74;56.11
48424;BME280;34232;42.502;26.014;2023-05-14T04:21:04;100767.28;;;13.78;56.95
48424;BME280;34232;42.502;26.014;2023-05-14T04:23:29;100758.66;;;13.65;55.05
48424;BME280;34232;42.502;26.014;2023-05-14T04:25:55;100753.38;;;13.65;55.33
48424;BME280;34232;42.502;26.014;2023-05-14T04:28:21;100751.00;;;13.62;55.14
48424;BME280;34232;42.502;26.014;2023-05-14T04:30:47;100747.44;;;13.52;54.86
48424;BME280;34232;42.502;26.014;2023-05-14T04:33:15;100749.31;;;13.61;54.78
48424;BME280;34232;42.502;26.014;2023-05-14T04:35:41;100751.75;;;13.53;55.83
48424;BME280;34232;42.502;26.014;2023-05-14T04:38:06;100755.50;;;13.50;56.89
48424;BME280;34232;42.502;26.014;2023-05-14T04:40:31;100754.88;;;13.58;56.21
48424;BME280;34232;42.502;26.014;2023-05-14T04:42:57;100765.25;;;13.71;56.42
48424;BME280;34232;42.502;26.014;2023-05-14T04:45:22;100758.88;;;13.73;56.97
48424;BME280;34232;42.502;26.014;2023-05-14T04:47:48;100750.81;;;13.95;57.01
48424;BME280;34232;42.502;26.014;2023-05-14T04:50:13;100747.63;;;14.01;56.89
48424;BME280;34232;42.502;26.014;2023-05-14T04:52:38;100753.50;;;14.05;57.39
48424;BME280;34232;42.502;26.014;2023-05-14T04:55:04;100752.66;;;14.05;57.53
48424;BME280;34232;42.502;26.014;2023-05-14T04:57:29;100754.44;;;14.25;57.32
48424;BME280;34232;42.502;26.014;2023-05-14T04:59:55;100753.03;;;14.30;56.56
48424;BME280;34232;42.502;26.014;2023-05-14T05:02:20;100749.50;;;14.41;56.44
48424;BME280;34232;42.502;26.014;2023-05-14T05:04:45;100755.56;;;14.62;54.91
48424;BME280;34232;42.502;26.014;2023-05-14T05:07:11;100756.59;;;14.81;53.86
48424;BME280;34232;42.502;26.014;2023-05-14T05:09:37;100756.06;;;14.96;53.23
48424;BME280;34232;42.502;26.014;2023-05-14T05:12:02;100765.72;;;15.26;53.14
48424;BME280;34232;42.502;26.014;2023-05-14T05:14:27;100762.81;;;15.39;52.53
48424;BME280;34232;42.502;26.014;2023-05-14T05:16:53;100758.34;;;15.59;52.24
48424;BME280;34232;42.502;26.014;2023-05-14T05:19:18;100760.16;;;15.68;52.20
48424;BME280;34232;42.502;26.014;2023-05-14T05:21:44;100756.50;;;15.88;51.58
48424;BME280;34232;42.502;26.014;2023-05-14T05:24:09;100763.72;;;15.96;51.01
48424;BME280;34232;42.502;26.014;2023-05-14T05:26:34;100770.69;;;16.16;50.05
48424;BME280;34232;42.502;26.014;2023-05-14T05:29:03;100770.94;;;16.23;48.40
48424;BME280;34232;42.502;26.014;2023-05-14T05:31:28;100768.25;;;16.32;48.16
48424;BME280;34232;42.502;26.014;2023-05-14T05:33:54;100765.09;;;16.47;48.88
48424;BME280;34232;42.502;26.014;2023-05-14T05:36:19;100763.09;;;16.58;48.94
48424;BME280;34232;42.502;26.014;2023-05-14T05:38:44;100763.09;;;16.68;48.11
48424;BME280;34232;42.502;26.014;2023-05-14T05:41:10;100779.22;;;16.84;48.57
48424;BME280;34232;42.502;26.014;2023-05-14T05:43:35;100777.78;;;16.90;47.81
48424;BME280;34232;42.502;26.014;2023-05-14T05:46:00;100771.88;;;16.96;47.22
48424;BME280;34232;42.502;26.014;2023-05-14T05:48:25;100780.59;;;16.88;46.13
48424;BME280;34232;42.502;26.014;2023-05-14T05:50:51;100786.16;;;16.95;45.85
48424;BME280;34232;42.502;26.014;2023-05-14T05:53:16;100792.06;;;16.89;46.30
48424;BME280;34232;42.502;26.014;2023-05-14T05:55:41;100805.75;;;16.94;45.42
48424;BME280;34232;42.502;26.014;2023-05-14T05:58:07;100813.16;;;17.00;46.44
48424;BME280;34232;42.502;26.014;2023-05-14T06:00:32;100818.63;;;16.98;46.17
48424;BME280;34232;42.502;26.014;2023-05-14T06:02:58;100816.03;;;17.06;46.31
48424;BME280;34232;42.502;26.014;2023-05-14T06:05:23;100820.84;;;17.03;46.25
48424;BME280;34232;42.502;26.014;2023-05-14T06:07:48;100819.09;;;17.11;46.18
48424;BME280;34232;42.502;26.014;2023-05-14T06:10:13;100825.50;;;17.19;46.63
48424;BME280;34232;42.502;26.014;2023-05-14T06:12:39;100817.84;;;17.33;46.50
48424;BME280;34232;42.502;26.014;2023-05-14T06:15:04;100807.41;;;17.40;45.37
48424;BME280;34232;42.502;26.014;2023-05-14T06:17:30;100796.44;;;17.43;44.44
48424;BME280;34232;42.502;26.014;2023-05-14T06:19:55;100800.03;;;17.52;43.34
48424;BME280;34232;42.502;26.014;2023-05-14T06:22:20;100803.31;;;17.45;42.51
48424;BME280;34232;42.502;26.014;2023-05-14T06:24:46;100813.56;;;17.40;42.62
48424;BME280;34232;42.502;26.014;2023-05-14T06:27:11;100818.28;;;17.46;43.38
48424;BME280;34232;42.502;26.014;2023-05-14T06:29:37;100814.19;;;17.70;43.32
48424;BME280;34232;42.502;26.014;2023-05-14T06:32:02;100811.59;;;17.78;43.73
48424;BME280;34232;42.502;26.014;2023-05-14T06:34:28;100814.28;;;17.78;43.33
48424;BME280;34232;42.502;26.014;2023-05-14T06:36:53;100807.00;;;17.88;43.84
48424;BME280;34232;42.502;26.014;2023-05-14T06:39:18;100808.75;;;17.97;42.95
48424;BME280;34232;42.502;26.014;2023-05-14T06:41:44;100812.59;;;17.77;43.83
48424;BME280;34232;42.502;26.014;2023-05-14T06:44:09;100803.00;;;17.84;43.93
48424;BME280;34232;42.502;26.014;2023-05-14T06:46:35;100807.00;;;17.88;44.58
48424;BME280;34232;42.502;26.014;2023-05-14T06:49:00;100812.03;;;17.91;44.55
48424;BME280;34232;42.502;26.014;2023-05-14T06:51:25;100813.56;;;17.94;45.22
48424;BME280;34232;42.502;26.014;2023-05-14T06:53:51;100811.44;;;17.97;44.07
48424;BME280;34232;42.502;26.014;2023-05-14T06:56:18;100804.19;;;17.90;43.45
48424;BME280;34232;42.502;26.014;2023-05-14T06:58:43;100811.00;;;17.84;43.12
48424;BME280;34232;42.502;26.014;2023-05-14T07:01:08;100821.81;;;17.82;43.00
48424;BME280;34232;42.502;26.014;2023-05-14T07:03:34;100820.28;;;17.80;41.98
48424;BME280;34232;42.502;26.014;2023-05-14T07:06:00;100814.81;;;17.81;42.31
48424;BME280;34232;42.502;26.014;2023-05-14T07:08:25;100813.41;;;17.95;42.59
48424;BME280;34232;42.502;26.014;2023-05-14T07:10:50;100815.50;;;18.09;43.11
48424;BME280;34232;42.502;26.014;2023-05-14T07:13:15;100814.50;;;18.10;42.68
48424;BME280;34232;42.502;26.014;2023-05-14T07:15:41;100827.06;;;18.18;42.69
48424;BME280;34232;42.502;26.014;2023-05-14T07:18:06;100827.63;;;18.30;42.50
48424;BME280;34232;42.502;26.014;2023-05-14T07:20:31;100825.66;;;18.32;42.57
48424;BME280;34232;42.502;26.014;2023-05-14T07:22:57;100822.50;;;18.36;41.69
48424;BME280;34232;42.502;26.014;2023-05-14T07:25:22;100824.31;;;18.36;42.18
48424;BME280;34232;42.502;26.014;2023-05-14T07:27:47;100835.97;;;18.35;41.63
48424;BME280;34232;42.502;26.014;2023-05-14T07:30:13;100838.41;;;18.46;42.12
48424;BME280;34232;42.502;26.014;2023-05-14T07:32:38;100844.88;;;18.43;40.21
48424;BME280;34232;42.502;26.014;2023-05-14T07:35:04;100836.66;;;18.37;39.89
48424;BME280;34232;42.502;26.014;2023-05-14T07:37:30;100837.34;;;18.39;40.20
48424;BME280;34232;42.502;26.014;2023-05-14T07:39:55;100836.31;;;18.32;40.62
48424;BME280;34232;42.502;26.014;2023-05-14T07:42:20;100831.03;;;18.40;40.97
48424;BME280;34232;42.502;26.014;2023-05-14T07:44:46;100835.97;;;18.35;40.85
48424;BME280;34232;42.502;26.014;2023-05-14T07:47:11;100840.38;;;18.44;39.64
48424;BME280;34232;42.502;26.014;2023-05-14T07:49:36;100845.19;;;18.40;39.62
48424;BME280;34232;42.502;26.014;2023-05-14T07:52:01;100843.59;;;18.56;40.94
48424;BME280;34232;42.502;26.014;2023-05-14T07:54:27;100833.94;;;18.54;40.08
48424;BME280;34232;42.502;26.014;2023-05-14T07:56:52;100837.75;;;18.52;40.02
48424;BME280;34232;42.502;26.014;2023-05-14T07:59:17;100842.78;;;18.55;39.03
48424;BME280;34232;42.502;26.014;2023-05-14T08:01:43;100838.72;;;18.43;39.88
48424;BME280;34232;42.502;26.014;2023-05-14T08:04:08;100833.91;;;18.46;39.04
48424;BME280;34232;42.502;26.014;2023-05-14T08:06:35;100830.56;;;18.44;39.52
48424;BME280;34232;42.502;26.014;2023-05-14T08:09:01;100833.06;;;18.46;39.64
48424;BME280;34232;42.502;26.014;2023-05-14T08:11:26;100828.66;;;18.37;40.03
48424;BME280;34232;42.502;26.014;2023-05-14T08:13:51;100833.50;;;18.33;40.77
48424;BME280;34232;42.502;26.014;2023-05-14T08:16:17;100830.66;;;18.35;40.25
48424;BME280;34232;42.502;26.014;2023-05-14T08:18:42;100825.41;;;18.51;41.01
48424;BME280;34232;42.502;26.014;2023-05-14T08:21:07;100825.53;;;18.67;41.05
48424;BME280;34232;42.502;26.014;2023-05-14T08:23:32;100810.63;;;18.91;40.01
48424;BME280;34232;42.502;26.014;2023-05-14T08:25:58;100826.13;;;18.87;39.87
48424;BME280;34232;42.502;26.014;2023-05-14T08:28:23;100824.16;;;18.97;39.84
48424;BME280;34232;42.502;26.014;2023-05-14T08:30:49;100818.84;;;19.05;39.93
48424;BME280;34232;42.502;26.014;2023-05-14T08:33:15;100823.69;;;19.10;40.13
48424;BME280;34232;42.502;26.014;2023-05-14T08:35:43;100819.06;;;19.28;39.16
48424;BME280;34232;42.502;26.014;2023-05-14T08:38:09;100825.75;;;19.32;38.66
48424;BME280;34232;42.502;26.014;2023-05-14T08:40:34;100828.22;;;19.17;39.52
48424;BME280;34232;42.502;26.014;2023-05-14T08:42:59;100831.59;;;19.36;39.16
48424;BME280;34232;42.502;26.014;2023-05-14T08:45:28;100829.91;;;19.35;38.15
48424;BME280;34232;42.502;26.014;2023-05-14T08:47:53;100825.41;;;19.35;38.85
48424;BME280;34232;42.502;26.014;2023-05-14T08:50:19;100827.47;;;19.49;38.57
48424;BME280;34232;42.502;26.014;2023-05-14T08:52:46;100833.84;;;19.56;38.41
48424;BME280;34232;42.502;26.014;2023-05-14T08:55:17;100834.66;;;19.65;37.46
48424;BME280;34232;42.502;26.014;2023-05-14T08:57:43;100827.84;;;19.63;38.64
48424;BME280;34232;42.502;26.014;2023-05-14T09:00:10;100829.13;;;19.42;37.57
48424;BME280;34232;42.502;26.014;2023-05-14T09:02:36;100830.44;;;19.38;37.62
48424;BME280;34232;42.502;26.014;2023-05-14T09:05:01;100827.72;;;19.22;38.01
48424;BME280;34232;42.502;26.014;2023-05-14T09:07:30;100833.44;;;19.35;38.53
48424;BME280;34232;42.502;26.014;2023-05-14T09:09:55;100840.75;;;19.25;36.89
48424;BME280;34232;42.502;26.014;2023-05-14T09:12:29;100845.06;;;19.10;37.36
48424;BME280;34232;42.502;26.014;2023-05-14T09:14:55;100838.75;;;19.27;37.01
48424;BME280;34232;42.502;26.014;2023-05-14T09:17:20;100845.09;;;19.34;37.83
48424;BME280;34232;42.502;26.014;2023-05-14T09:19:46;100855.47;;;19.37;37.54
48424;BME280;34232;42.502;26.014;2023-05-14T09:22:17;100853.78;;;19.36;37.68
48424;BME280;34232;42.502;26.014;2023-05-14T09:24:42;100862.47;;;19.38;37.12
48424;BME280;34232;42.502;26.014;2023-05-14T09:27:17;100864.78;;;19.33;36.30
48424;BME280;34232;42.502;26.014;2023-05-14T09:29:43;100863.78;;;19.34;36.45
48424;BME280;34232;42.502;26.014;2023-05-14T09:32:09;100862.84;;;19.43;36.49
48424;BME280;34232;42.502;26.014;2023-05-14T09:34:34;100870.22;;;19.49;36.96
48424;BME280;34232;42.502;26.014;2023-05-14T09:37:06;100864.38;;;19.54;38.30
48424;BME280;34232;42.502;26.014;2023-05-14T09:39:31;100850.38;;;19.60;41.48
48424;BME280;34232;42.502;26.014;2023-05-14T09:41:57;100859.34;;;19.43;37.87
48424;BME280;34232;42.502;26.014;2023-05-14T09:44:23;100855.13;;;19.32;36.72
48424;BME280;34232;42.502;26.014;2023-05-14T09:46:49;100859.59;;;19.23;36.61
48424;BME280;34232;42.502;26.014;2023-05-14T09:49:14;100858.63;;;19.33;36.74
48424;BME280;34232;42.502;26.014;2023-05-14T09:51:40;100854.78;;;19.35;36.33
48424;BME280;34232;42.502;26.014;2023-05-14T09:54:05;100856.81;;;19.41;39.67
48424;BME280;34232;42.502;26.014;2023-05-14T09:56:31;100847.13;;;19.40;39.83
48424;BME280;34232;42.502;26.014;2023-05-14T09:58:57;100841.44;;;19.35;39.53
48424;BME280;34232;42.502;26.014;2023-05-14T10:01:22;100838.78;;;19.35;40.44
48424;BME280;34232;42.502;26.014;2023-05-14T10:03:48;100844.16;;;19.43;42.35
48424;BME280;34232;42.502;26.014;2023-05-14T10:06:15;100841.16;;;19.46;45.48
48424;BME280;34232;42.502;26.014;2023-05-14T10:08:41;100834.63;;;19.49;46.66
48424;BME280;34232;42.502;26.014;2023-05-14T10:11:10;100820.44;;;19.48;48.14
48424;BME280;34232;42.502;26.014;2023-05-14T10:13:40;100815.75;;;19.42;48.11
48424;BME280;34232;42.502;26.014;2023-05-14T10:16:16;100814.06;;;19.25;45.66
48424;BME280;34232;42.502;26.014;2023-05-14T10:18:45;100820.06;;;19.35;45.50
48424;BME280;34232;42.502;26.014;2023-05-14T10:21:13;100823.09;;;19.40;42.54
48424;BME280;34232;42.502;26.014;2023-05-14T10:23:38;100821.44;;;19.39;42.73
48424;BME280;34232;42.502;26.014;2023-05-14T10:26:05;100814.94;;;19.42;46.83
48424;BME280;34232;42.502;26.014;2023-05-14T10:28:30;100817.44;;;19.43;44.27
48424;BME280;34232;42.502;26.014;2023-05-14T10:30:56;100810.91;;;19.38;43.90
48424;BME280;34232;42.502;26.014;2023-05-14T10:33:21;100808.38;;;19.12;45.74
48424;BME280;34232;42.502;26.014;2023-05-14T10:36:00;100803.53;;;19.15;44.35
48424;BME280;34232;42.502;26.014;2023-05-14T10:38:26;100790.34;;;19.14;45.37
48424;BME280;34232;42.502;26.014;2023-05-14T10:40:59;100785.00;;;19.14;41.75
48424;BME280;34232;42.502;26.014;2023-05-14T10:43:25;100774.53;;;19.29;42.97
48424;BME280;34232;42.502;26.014;2023-05-14T10:45:52;100777.53;;;19.42;44.35
48424;BME280;34232;42.502;26.014;2023-05-14T10:48:17;100774.38;;;19.46;42.83
48424;BME280;34232;42.502;26.014;2023-05-14T10:50:43;100775.72;;;19.67;43.72
48424;BME280;34232;42.502;26.014;2023-05-14T10:53:12;100768.69;;;19.82;45.09
48424;BME280;34232;42.502;26.014;2023-05-14T10:55:37;100761.66;;;19.97;44.78
48424;BME280;34232;42.502;26.014;2023-05-14T10:58:02;100753.69;;;19.89;43.89
48424;BME280;34232;42.502;26.014;2023-05-14T11:00:28;100754.81;;;20.03;44.04
48424;BME280;34232;42.502;26.014;2023-05-14T11:02:54;100746.78;;;20.11;42.78
48424;BME280;34232;42.502;26.014;2023-05-14T11:05:19;100745.00;;;19.95;40.77
48424;BME280;34232;42.502;26.014;2023-05-14T11:07:46;100750.19;;;19.80;41.70
48424;BME280;34232;42.502;26.014;2023-05-14T11:10:12;100758.03;;;19.90;41.19
48424;BME280;34232;42.502;26.014;2023-05-14T11:12:44;100755.69;;;19.95;42.35
48424;BME280;34232;42.502;26.014;2023-05-14T11:15:11;100735.31;;;19.94;41.70
48424;BME280;34232;42.502;26.014;2023-05-14T11:17:37;100729.97;;;19.94;39.55
48424;BME280;34232;42.502;26.014;2023-05-14T11:20:03;100737.63;;;19.89;40.10
48424;BME280;34232;42.502;26.014;2023-05-14T11:22:30;100745.66;;;19.81;41.36
48424;BME280;34232;42.502;26.014;2023-05-14T11:24:55;100744.38;;;19.61;39.92
48424;BME280;34232;42.502;26.014;2023-05-14T11:27:21;100732.50;;;19.79;39.60
48424;BME280;34232;42.502;26.014;2023-05-14T11:29:48;100730.00;;;19.62;39.05
48424;BME280;34232;42.502;26.014;2023-05-14T11:32:14;100736.81;;;19.72;39.01
48424;BME280;34232;42.502;26.014;2023-05-14T11:34:40;100729.00;;;19.79;39.99
48424;BME280;34232;42.502;26.014;2023-05-14T11:37:06;100728.66;;;19.58;39.83
48424;BME280;34232;42.502;26.014;2023-05-14T11:39:32;100735.16;;;19.71;40.46
48424;BME280;34232;42.502;26.014;2023-05-14T11:42:18;100730.97;;;19.85;39.06
48424;BME280;34232;42.502;26.014;2023-05-14T11:44:50;100729.81;;;19.71;39.75
48424;BME280;34232;42.502;26.014;2023-05-14T11:47:19;100732.97;;;19.67;39.28
48424;BME280;34232;42.502;26.014;2023-05-14T11:49:45;100713.25;;;19.84;39.83
48424;BME280;34232;42.502;26.014;2023-05-14T11:52:12;100719.94;;;19.96;39.82
48424;BME280;34232;42.502;26.014;2023-05-14T11:54:39;100716.06;;;19.99;39.52
48424;BME280;34232;42.502;26.014;2023-05-14T11:57:09;100702.56;;;19.92;38.01
48424;BME280;34232;42.502;26.014;2023-05-14T11:59:35;100701.94;;;19.58;38.91
48424;BME280;34232;42.502;26.014;2023-05-14T12:02:01;100710.78;;;19.66;38.79
48424;BME280;34232;42.502;26.014;2023-05-14T12:04:27;100698.22;;;19.83;38.46
48424;BME280;34232;42.502;26.014;2023-05-14T12:06:52;100695.38;;;19.92;39.04
48424;BME280;34232;42.502;26.014;2023-05-14T12:09:18;100691.91;;;19.68;38.67
48424;BME280;34232;42.502;26.014;2023-05-14T12:11:47;100674.91;;;19.52;39.88
48424;BME280;34232;42.502;26.014;2023-05-14T12:14:30;100674.38;;;19.41;40.30
48424;BME280;34232;42.502;26.014;2023-05-14T12:17:00;100666.72;;;19.38;40.38
48424;BME280;34232;42.502;26.014;2023-05-14T12:19:25;100665.88;;;19.53;39.89
48424;BME280;34232;42.502;26.014;2023-05-14T12:21:51;100670.88;;;19.65;39.69
48424;BME280;34232;42.502;26.014;2023-05-14T12:24:19;100676.22;;;19.73;39.67
48424;BME280;34232;42.502;26.014;2023-05-14T12:26:48;100686.59;;;19.51;39.51
48424;BME280;34232;42.502;26.014;2023-05-14T12:29:14;100688.75;;;19.23;40.03
48424;BME280;34232;42.502;26.014;2023-05-14T12:31:48;100689.06;;;19.37;40.26
48424;BME280;34232;42.502;26.014;2023-05-14T12:34:14;100685.59;;;19.12;40.69
48424;BME280;34232;42.502;26.014;2023-05-14T12:36:39;100683.38;;;18.91;40.41
48424;BME280;34232;42.502;26.014;2023-05-14T12:39:05;100684.50;;;18.72;40.89
48424;BME280;34232;42.502;26.014;2023-05-14T12:41:30;100683.50;;;18.65;40.95